createdAt,value
2017-11-04T00:00:44.402Z,36.70
2017-11-04T00:03:11.819Z,36.70
2017-11-04T00:05:39.270Z,37.30
2017-11-04T00:08:06.729Z,37.67
2017-11-04T00:10:34.186Z,36.37
2017-11-04T00:13:01.591Z,36.00
2017-11-04T00:15:29.011Z,34.47
2017-11-04T00:17:56.434Z,35.33
2017-11-04T00:20:23.790Z,34.40
2017-11-04T00:22:51.194Z,34.30
2017-11-04T00:25:18.581Z,34.97
2017-11-04T00:27:45.993Z,34.47
2017-11-04T00:30:13.382Z,36.00
2017-11-04T00:32:40.774Z,36.97
2017-11-04T00:35:08.231Z,40.50
2017-11-04T00:37:35.618Z,38.00
2017-11-04T00:40:03.066Z,36.97
2017-11-04T00:42:30.455Z,35.87
2017-11-04T00:44:57.879Z,37.40
2017-11-04T00:47:25.315Z,37.40
2017-11-04T00:49:52.798Z,33.90
2017-11-04T00:52:20.178Z,37.17
2017-11-04T00:54:47.583Z,37.50
2017-11-04T00:57:15.043Z,35.53
2017-11-04T00:59:42.499Z,36.17
2017-11-04T01:02:09.884Z,36.05
2017-11-04T01:04:37.311Z,37.03
2017-11-04T01:07:04.694Z,35.40
2017-11-04T01:09:32.109Z,36.83
2017-11-04T01:11:59.496Z,35.43
2017-11-04T01:14:26.939Z,36.57
2017-11-04T01:16:54.327Z,36.47
2017-11-04T01:19:21.739Z,38.50
2017-11-04T01:21:49.131Z,36.70
2017-11-04T01:24:16.523Z,38.20
2017-11-04T01:26:43.997Z,37.30
2017-11-04T01:29:11.418Z,39.13
2017-11-04T01:31:38.918Z,38.10
2017-11-04T01:34:06.371Z,38.40
2017-11-04T01:36:33.771Z,40.50
2017-11-04T01:39:01.186Z,39.67
2017-11-04T01:41:28.587Z,38.83
2017-11-04T01:43:56.004Z,37.60
2017-11-04T01:46:23.395Z,36.93
2017-11-04T01:48:50.798Z,36.07
2017-11-04T01:51:18.266Z,36.60
2017-11-04T01:53:45.120Z,39.07
2017-11-04T01:56:12.522Z,37.90
2017-11-04T01:58:40.017Z,37.40
2017-11-04T02:01:07.410Z,37.87
2017-11-04T02:03:34.827Z,39.00
2017-11-04T02:06:02.226Z,35.30
2017-11-04T02:08:29.622Z,36.87
2017-11-04T02:10:57.013Z,36.50
2017-11-04T02:13:24.446Z,37.70
2017-11-04T02:15:51.838Z,37.00
2017-11-04T02:18:19.237Z,38.07
2017-11-04T02:20:46.629Z,37.20
2017-11-04T02:23:14.022Z,36.00
2017-11-04T02:25:41.410Z,41.07
2017-11-04T02:28:08.886Z,34.57
2017-11-04T02:30:36.285Z,33.33
2017-11-04T02:33:03.698Z,26.80
2017-11-04T02:35:31.146Z,25.77
2017-11-04T02:37:58.538Z,29.10
2017-11-04T02:40:25.955Z,26.33
2017-11-04T02:42:53.356Z,27.17
2017-11-04T02:45:20.751Z,30.83
2017-11-04T02:47:48.148Z,24.80
2017-11-04T02:50:15.535Z,25.93
2017-11-04T02:52:42.976Z,24.67
2017-11-04T02:55:10.392Z,23.73
2017-11-04T02:57:37.786Z,28.43
2017-11-04T03:00:05.187Z,27.93
2017-11-04T03:02:32.591Z,22.17
2017-11-04T03:05:00.012Z,26.57
2017-11-04T03:07:27.418Z,24.20
2017-11-04T03:09:54.818Z,23.63
2017-11-04T03:12:22.274Z,24.43
2017-11-04T03:14:49.673Z,28.23
2017-11-04T03:17:17.090Z,33.83
2017-11-04T03:19:44.495Z,29.20
2017-11-04T03:22:11.885Z,28.57
2017-11-04T03:24:39.354Z,24.87
2017-11-04T03:27:06.755Z,23.80
2017-11-04T03:29:34.153Z,23.90
2017-11-04T03:32:01.559Z,24.40
2017-11-04T03:34:28.962Z,23.03
2017-11-04T03:36:56.426Z,23.03
2017-11-04T03:39:23.821Z,23.50
2017-11-04T03:41:51.240Z,22.53
2017-11-04T03:44:18.643Z,23.93
2017-11-04T03:46:46.025Z,24.70
2017-11-04T03:49:13.419Z,25.43
2017-11-04T03:51:40.815Z,33.10
2017-11-04T03:54:08.318Z,31.80
2017-11-04T03:56:35.769Z,32.43
2017-11-04T03:59:03.226Z,34.77
2017-11-04T04:01:30.642Z,33.17
2017-11-04T04:03:58.026Z,33.43
2017-11-04T04:06:25.418Z,31.73
2017-11-04T04:08:52.852Z,33.13
2017-11-04T04:11:20.238Z,28.70
2017-11-04T04:13:47.641Z,31.87
2017-11-04T04:16:15.119Z,29.87
2017-11-04T04:18:42.541Z,31.70
2017-11-04T04:21:09.930Z,26.50
2017-11-04T04:23:37.343Z,32.50
2017-11-04T04:26:04.739Z,29.83
2017-11-04T04:28:32.149Z,29.33
2017-11-04T04:30:59.550Z,30.07
2017-11-04T04:33:26.981Z,31.73
2017-11-04T04:35:54.379Z,27.90
2017-11-04T04:38:21.779Z,29.57
2017-11-04T04:40:49.174Z,29.47
2017-11-04T04:43:16.562Z,30.40
2017-11-04T04:45:43.962Z,30.03
2017-11-04T04:48:11.352Z,28.53
2017-11-04T04:50:38.754Z,29.43
2017-11-04T04:53:06.139Z,28.20
2017-11-04T04:55:33.598Z,29.10
2017-11-04T04:58:00.983Z,30.80
2017-11-04T05:00:28.388Z,32.17
2017-11-04T05:02:55.774Z,29.63
2017-11-04T05:05:23.183Z,30.03
2017-11-04T05:07:50.583Z,29.43
2017-11-04T05:10:18.035Z,29.90
2017-11-04T05:12:45.494Z,30.47
2017-11-04T05:15:12.891Z,27.57
2017-11-04T05:17:40.287Z,28.70
2017-11-04T05:20:07.695Z,28.93
2017-11-04T05:22:35.097Z,30.23
2017-11-04T05:25:02.486Z,29.77
2017-11-04T05:27:29.897Z,27.13
2017-11-04T05:29:57.282Z,29.70
2017-11-04T05:32:24.686Z,29.50
2017-11-04T05:34:52.091Z,28.03
2017-11-04T05:37:19.488Z,28.30
2017-11-04T05:39:46.871Z,27.53
2017-11-04T05:42:14.353Z,30.33
2017-11-04T05:44:41.767Z,27.87
2017-11-04T05:47:09.162Z,29.50
2017-11-04T05:49:36.551Z,27.60
2017-11-04T05:52:04.070Z,25.70
2017-11-04T05:54:32.342Z,28.67
2017-11-04T05:56:59.033Z,27.33
2017-11-04T05:59:26.435Z,28.90
2017-11-04T06:01:53.839Z,28.52
2017-11-04T06:04:21.236Z,29.93
2017-11-04T06:06:48.709Z,28.83
2017-11-04T06:09:16.133Z,28.73
2017-11-04T06:11:43.518Z,28.30
2017-11-04T06:14:10.923Z,28.93
2017-11-04T06:16:38.315Z,28.87
2017-11-04T06:19:05.788Z,30.70
2017-11-04T06:21:33.175Z,31.70
2017-11-04T06:24:00.575Z,30.33
2017-11-04T06:26:27.963Z,28.60
2017-11-04T06:28:55.374Z,28.40
2017-11-04T06:31:22.775Z,29.40
2017-11-04T06:33:50.260Z,29.40
2017-11-04T06:36:17.859Z,30.80
2017-11-04T06:38:45.338Z,29.97
2017-11-04T06:41:12.827Z,31.10
2017-11-04T06:43:40.219Z,32.40
2017-11-04T06:46:07.616Z,31.93
2017-11-04T06:48:35.002Z,31.87
2017-11-04T06:51:02.405Z,29.63
2017-11-04T06:53:29.798Z,29.83
2017-11-04T06:55:57.200Z,31.90
2017-11-04T06:58:24.591Z,31.20
2017-11-04T07:00:51.986Z,30.63
2017-11-04T07:03:19.384Z,31.30
2017-11-04T07:05:46.779Z,33.27
2017-11-04T07:08:14.199Z,32.80
2017-11-04T07:10:41.605Z,32.90
2017-11-04T07:13:08.994Z,33.17
2017-11-04T07:15:36.403Z,31.30
2017-11-04T07:18:03.814Z,29.53
2017-11-04T07:20:31.275Z,30.70
2017-11-04T07:22:58.668Z,32.67
2017-11-04T07:25:26.060Z,32.67
2017-11-04T07:27:53.534Z,30.63
2017-11-04T07:30:20.936Z,32.13
2017-11-04T07:32:48.318Z,33.17
2017-11-04T07:35:15.723Z,32.60
2017-11-04T07:37:43.111Z,33.60
2017-11-04T07:40:10.498Z,31.70
2017-11-04T07:42:37.893Z,33.50
2017-11-04T07:45:05.341Z,32.57
2017-11-04T07:47:32.742Z,34.13
2017-11-04T07:50:00.132Z,31.27
2017-11-04T07:52:27.774Z,31.77
2017-11-04T07:54:55.223Z,34.30
2017-11-04T07:57:22.623Z,32.80
2017-11-04T07:59:50.015Z,32.53
2017-11-04T08:02:17.523Z,32.43
2017-11-04T08:04:44.912Z,33.80
2017-11-04T08:07:12.331Z,32.87
2017-11-04T08:09:41.630Z,31.53
2017-11-04T08:12:09.035Z,32.37
2017-11-04T08:14:36.442Z,32.60
2017-11-04T08:17:03.898Z,31.57
2017-11-04T08:19:31.303Z,30.87
2017-11-04T08:21:58.691Z,30.80
2017-11-04T08:24:26.078Z,32.50
2017-11-04T08:26:53.498Z,32.43
2017-11-04T08:29:20.888Z,32.67
2017-11-04T08:31:48.288Z,31.17
2017-11-04T08:34:15.678Z,30.80
2017-11-04T08:36:43.190Z,31.50
2017-11-04T08:39:10.562Z,30.57
2017-11-04T08:41:38.051Z,31.53
2017-11-04T08:44:05.446Z,30.87
2017-11-04T08:46:32.844Z,29.77
2017-11-04T08:49:00.253Z,31.40
2017-11-04T08:51:27.651Z,30.60
2017-11-04T08:53:55.034Z,28.80
2017-11-04T08:56:22.435Z,27.60
2017-11-04T08:58:49.843Z,27.80
2017-11-04T09:01:17.232Z,27.10
2017-11-04T09:03:44.642Z,25.37
2017-11-04T09:06:14.852Z,27.10
2017-11-04T09:08:42.298Z,26.77
2017-11-04T09:11:09.746Z,26.47
2017-11-04T09:13:37.151Z,25.90
2017-11-04T09:16:04.560Z,28.23
2017-11-04T09:18:31.959Z,24.17
2017-11-04T09:20:59.355Z,25.67
2017-11-04T09:23:26.763Z,25.40
2017-11-04T09:25:54.155Z,23.77
2017-11-04T09:28:21.561Z,25.33
2017-11-04T09:30:48.957Z,24.00
2017-11-04T09:33:16.442Z,23.60
2017-11-04T09:35:43.860Z,24.93
2017-11-04T09:38:11.358Z,23.17
2017-11-04T09:40:38.763Z,25.63
2017-11-04T09:43:06.159Z,26.67
2017-11-04T09:45:33.562Z,27.00
2017-11-04T09:48:00.959Z,23.80
2017-11-04T09:50:28.435Z,25.90
2017-11-04T09:52:55.898Z,24.03
2017-11-04T09:55:23.309Z,23.50
2017-11-04T09:57:50.827Z,22.33
2017-11-04T10:00:18.234Z,22.50
2017-11-04T10:02:45.637Z,25.80
2017-11-04T10:05:13.039Z,27.37
2017-11-04T10:07:40.496Z,26.77
2017-11-04T10:10:07.882Z,28.50
2017-11-04T10:12:35.352Z,29.10
2017-11-04T10:15:02.759Z,27.27
2017-11-04T10:17:30.154Z,29.77
2017-11-04T10:19:57.575Z,31.53
2017-11-04T10:22:24.963Z,28.57
2017-11-04T10:24:52.403Z,27.60
2017-11-04T10:27:19.774Z,28.83
2017-11-04T10:29:47.303Z,27.70
2017-11-04T10:32:14.702Z,26.67
2017-11-04T10:34:42.139Z,26.20
2017-11-04T10:37:09.562Z,25.23
2017-11-04T10:39:37.042Z,27.80
2017-11-04T10:42:04.450Z,25.83
2017-11-04T10:44:31.837Z,26.70
2017-11-04T10:46:59.294Z,28.37
2017-11-04T10:49:26.782Z,26.50
2017-11-04T10:51:54.204Z,27.80
2017-11-04T10:54:21.615Z,28.17
2017-11-04T10:56:49.010Z,29.00
2017-11-04T10:59:16.413Z,27.97
2017-11-04T11:01:43.810Z,28.10
2017-11-04T11:04:11.208Z,27.83
2017-11-04T11:06:38.614Z,31.17
2017-11-04T11:09:05.998Z,30.10
2017-11-04T11:11:33.402Z,28.13
2017-11-04T11:14:00.804Z,28.90
2017-11-04T11:16:28.208Z,27.20
2017-11-04T11:18:55.615Z,29.17
2017-11-04T11:21:23.056Z,28.77
2017-11-04T11:23:50.444Z,28.93
2017-11-04T11:26:17.879Z,30.20
2017-11-04T11:28:45.340Z,29.53
2017-11-04T11:31:12.731Z,28.70
2017-11-04T11:33:40.130Z,30.03
2017-11-04T11:36:07.604Z,30.70
2017-11-04T11:38:35.016Z,29.67
2017-11-04T11:41:02.513Z,30.63
2017-11-04T11:43:29.975Z,29.40
2017-11-04T11:45:57.371Z,29.57
2017-11-04T11:48:24.775Z,29.77
2017-11-04T11:50:52.215Z,29.43
2017-11-04T11:53:19.712Z,29.90
2017-11-04T11:55:47.127Z,29.30
2017-11-04T11:58:14.606Z,31.10
2017-11-04T12:00:42.010Z,32.70
2017-11-04T12:03:09.442Z,31.33
2017-11-04T12:05:36.824Z,29.37
2017-11-04T12:08:04.218Z,31.07
2017-11-04T12:10:31.618Z,29.47
2017-11-04T12:12:59.023Z,31.20
2017-11-04T12:15:26.498Z,32.13
2017-11-04T12:17:53.895Z,32.63
2017-11-04T12:20:21.319Z,32.70
2017-11-04T12:22:48.721Z,33.37
2017-11-04T12:25:16.110Z,31.97
2017-11-04T12:27:43.526Z,31.90
2017-11-04T12:30:10.934Z,31.30
2017-11-04T12:32:38.326Z,31.33
2017-11-04T12:35:05.804Z,31.20
2017-11-04T12:37:33.190Z,32.50
2017-11-04T12:40:00.615Z,34.70
2017-11-04T12:42:28.071Z,33.53
2017-11-04T12:44:55.471Z,32.03
2017-11-04T12:47:22.877Z,32.00
2017-11-04T12:49:50.291Z,31.63
2017-11-04T12:52:17.690Z,32.93
2017-11-04T12:54:45.151Z,31.27
2017-11-04T12:57:12.606Z,33.00
2017-11-04T12:59:40.011Z,32.77
2017-11-04T13:02:07.533Z,33.40
2017-11-04T13:04:34.923Z,30.63
2017-11-04T13:07:02.331Z,33.07
2017-11-04T13:09:29.731Z,30.50
2017-11-04T13:11:57.126Z,33.20
2017-11-04T13:14:24.526Z,34.40
2017-11-04T13:16:51.951Z,32.53
2017-11-04T13:19:19.348Z,32.40
2017-11-04T13:21:46.795Z,31.10
2017-11-04T13:24:14.218Z,31.37
2017-11-04T13:26:41.679Z,32.80
2017-11-04T13:29:09.067Z,32.70
2017-11-04T13:31:36.464Z,34.67
2017-11-04T13:34:03.846Z,30.60
2017-11-04T13:36:31.255Z,31.70
2017-11-04T13:38:58.642Z,31.47
2017-11-04T13:41:26.106Z,31.87
2017-11-04T13:43:53.490Z,33.40
2017-11-04T13:46:20.886Z,31.33
2017-11-04T13:48:48.271Z,33.07
2017-11-04T13:51:15.696Z,31.47
2017-11-04T13:53:43.079Z,31.53
2017-11-04T13:56:10.551Z,32.67
2017-11-04T13:58:38.130Z,34.33
2017-11-04T14:01:05.582Z,32.33
2017-11-04T14:03:33.027Z,33.20
2017-11-04T14:06:00.478Z,31.70
2017-11-04T14:08:27.876Z,31.90
2017-11-04T14:10:55.263Z,32.70
2017-11-04T14:13:22.666Z,33.33
2017-11-04T14:15:50.055Z,33.20
2017-11-04T14:18:17.447Z,30.83
2017-11-04T14:20:44.836Z,32.93
2017-11-04T14:23:12.271Z,32.00
2017-11-04T14:25:39.719Z,32.90
2017-11-04T14:28:07.131Z,31.53
2017-11-04T14:30:34.542Z,30.97
2017-11-04T14:33:01.957Z,28.60
2017-11-04T14:35:29.344Z,32.13
2017-11-04T14:37:56.759Z,31.27
2017-11-04T14:40:24.142Z,31.10
2017-11-04T14:42:51.543Z,32.80
2017-11-04T14:45:18.944Z,33.20
2017-11-04T14:47:46.326Z,29.43
2017-11-04T14:50:13.732Z,29.87
2017-11-04T14:52:41.126Z,29.93
2017-11-04T14:55:08.599Z,29.97
2017-11-04T14:57:35.995Z,30.73
2017-11-04T15:00:03.960Z,29.08
2017-11-04T15:02:31.364Z,29.93
2017-11-04T15:04:58.839Z,29.73
2017-11-04T15:07:26.223Z,29.47
2017-11-04T15:09:53.627Z,31.17
2017-11-04T15:12:21.023Z,28.97
2017-11-04T15:14:48.415Z,29.60
2017-11-04T15:17:15.821Z,31.67
2017-11-04T15:19:43.262Z,31.00
2017-11-04T15:22:10.658Z,31.73
2017-11-04T15:24:38.071Z,30.27
2017-11-04T15:27:05.526Z,30.60
2017-11-04T15:29:32.998Z,31.07
2017-11-04T15:32:00.451Z,30.97
2017-11-04T15:34:27.847Z,30.83
2017-11-04T15:36:55.331Z,31.60
2017-11-04T15:39:22.724Z,32.10
2017-11-04T15:41:50.118Z,31.00
2017-11-04T15:44:17.506Z,29.63
2017-11-04T15:46:44.902Z,29.97
2017-11-04T15:49:12.295Z,28.93
2017-11-04T15:51:39.695Z,27.87
2017-11-04T15:54:07.084Z,29.87
2017-11-04T15:56:34.514Z,29.97
2017-11-04T15:59:01.899Z,29.87
2017-11-04T16:01:29.310Z,33.13
2017-11-04T16:03:56.701Z,32.17
2017-11-04T16:06:24.090Z,29.23
2017-11-04T16:08:51.550Z,30.10
2017-11-04T16:11:18.947Z,28.30
2017-11-04T16:13:46.343Z,28.60
2017-11-04T16:16:13.750Z,29.83
2017-11-04T16:18:41.162Z,29.23
2017-11-04T16:21:08.626Z,29.90
2017-11-04T16:23:36.099Z,28.53
2017-11-04T16:26:03.519Z,29.03
2017-11-04T16:28:30.909Z,27.33
2017-11-04T16:30:58.304Z,29.27
2017-11-04T16:33:25.698Z,28.63
2017-11-04T16:35:53.091Z,29.57
2017-11-04T16:38:20.486Z,31.77
2017-11-04T16:40:47.978Z,30.20
2017-11-04T16:43:15.381Z,30.13
2017-11-04T16:45:42.878Z,30.37
2017-11-04T16:48:10.271Z,31.10
2017-11-04T16:50:37.696Z,33.13
2017-11-04T16:53:05.652Z,29.40
2017-11-04T16:55:33.029Z,29.57
2017-11-04T16:58:00.474Z,30.50
2017-11-04T17:00:27.888Z,30.30
2017-11-04T17:02:55.290Z,29.80
2017-11-04T17:05:22.683Z,31.70
2017-11-04T17:07:50.083Z,33.43
2017-11-04T17:10:17.469Z,32.40
2017-11-04T17:12:44.906Z,34.53
2017-11-04T17:15:12.308Z,34.17
2017-11-04T17:17:39.702Z,33.27
2017-11-04T17:20:07.189Z,31.33
2017-11-04T17:22:34.580Z,31.23
2017-11-04T17:25:01.976Z,30.80
2017-11-04T17:27:29.363Z,32.40
2017-11-04T17:29:56.754Z,29.90
2017-11-04T17:32:24.267Z,31.73
2017-11-04T17:34:51.718Z,31.80
2017-11-04T17:37:19.113Z,32.40
2017-11-04T17:39:46.528Z,31.83
2017-11-04T17:42:13.916Z,32.37
2017-11-04T17:44:41.331Z,33.03
2017-11-04T17:47:08.727Z,32.90
2017-11-04T17:49:36.118Z,32.60
2017-11-04T17:52:03.501Z,33.03
2017-11-04T17:54:30.924Z,34.57
2017-11-04T17:56:58.304Z,34.03
2017-11-04T17:59:25.700Z,32.23
2017-11-04T18:01:53.085Z,31.67
2017-11-04T18:04:20.478Z,31.50
2017-11-04T18:06:47.878Z,35.10
2017-11-04T18:09:15.391Z,34.30
2017-11-04T18:11:42.779Z,31.70
2017-11-04T18:14:10.172Z,32.07
2017-11-04T18:16:37.574Z,32.50
2017-11-04T18:19:05.027Z,30.80
2017-11-04T18:21:32.415Z,32.33
2017-11-04T18:23:59.878Z,30.40
2017-11-04T18:26:27.326Z,32.40
2017-11-04T18:28:54.718Z,31.13
2017-11-04T18:31:22.122Z,29.87
2017-11-04T18:33:49.598Z,30.37
2017-11-04T18:36:17.051Z,31.50
2017-11-04T18:38:44.506Z,32.07
2017-11-04T18:41:11.908Z,30.30
2017-11-04T18:43:39.293Z,30.50
2017-11-04T18:46:06.735Z,31.17
2017-11-04T18:48:34.123Z,32.20
2017-11-04T18:51:01.528Z,31.60
2017-11-04T18:53:29.048Z,29.87
2017-11-04T18:55:56.448Z,30.03
2017-11-04T18:58:23.850Z,32.13
2017-11-04T19:00:51.243Z,31.57
2017-11-04T19:03:18.643Z,31.67
2017-11-04T19:05:46.058Z,29.70
2017-11-04T19:08:13.458Z,29.40
2017-11-04T19:10:40.941Z,28.97
2017-11-04T19:13:08.348Z,29.57
2017-11-04T19:15:35.731Z,28.10
2017-11-04T19:18:03.198Z,29.10
2017-11-04T19:20:30.595Z,29.90
2017-11-04T19:22:58.011Z,29.10
2017-11-04T19:25:25.470Z,26.43
2017-11-04T19:27:52.863Z,26.83
2017-11-04T19:30:20.251Z,27.10
2017-11-04T19:32:47.734Z,25.43
2017-11-04T19:35:15.197Z,27.67
2017-11-04T19:37:42.655Z,26.97
2017-11-04T19:40:10.050Z,27.73
2017-11-04T19:42:37.459Z,28.07
2017-11-04T19:45:04.846Z,27.53
2017-11-04T19:47:32.243Z,27.07
2017-11-04T19:49:59.726Z,24.30
2017-11-04T19:52:27.143Z,24.23
2017-11-04T19:54:54.644Z,25.97
2017-11-04T19:57:22.042Z,26.23
2017-11-04T19:59:49.442Z,25.87
2017-11-04T20:02:16.849Z,24.10
2017-11-04T20:04:44.268Z,25.07
2017-11-04T20:07:11.722Z,22.57
2017-11-04T20:09:39.178Z,24.57
2017-11-04T20:12:06.573Z,24.20
2017-11-04T20:14:33.971Z,23.47
2017-11-04T20:17:01.364Z,22.60
2017-11-04T20:19:28.799Z,23.30
2017-11-04T20:21:56.191Z,23.60
2017-11-04T20:24:23.595Z,23.70
2017-11-04T20:26:51.018Z,22.83
2017-11-04T20:29:18.436Z,22.50
2017-11-04T20:31:45.882Z,21.70
2017-11-04T20:34:13.280Z,20.73
2017-11-04T20:36:40.672Z,20.37
2017-11-04T20:39:08.067Z,21.50
2017-11-04T20:41:35.501Z,22.13
2017-11-04T20:44:02.905Z,20.73
2017-11-04T20:46:30.311Z,19.93
2017-11-04T20:48:57.729Z,19.97
2017-11-04T20:51:25.102Z,19.90
2017-11-04T20:53:52.498Z,21.50
2017-11-04T20:56:19.887Z,18.63
2017-11-04T20:58:47.294Z,19.50
2017-11-04T21:01:14.757Z,19.60
2017-11-04T21:03:42.143Z,19.10
2017-11-04T21:06:09.554Z,20.03
2017-11-04T21:08:36.946Z,19.10
2017-11-04T21:11:04.344Z,20.10
2017-11-04T21:13:31.818Z,20.07
2017-11-04T21:15:59.223Z,19.53
2017-11-04T21:18:26.639Z,19.57
2017-11-04T21:20:54.047Z,19.80
2017-11-04T21:23:21.430Z,19.20
2017-11-04T21:25:48.833Z,19.60
2017-11-04T21:28:16.352Z,21.67
2017-11-04T21:30:43.751Z,19.60
2017-11-04T21:33:11.135Z,19.47
2017-11-04T21:35:38.591Z,20.70
2017-11-04T21:38:05.981Z,19.00
2017-11-04T21:40:33.371Z,19.97
2017-11-04T21:43:00.799Z,19.43
2017-11-04T21:45:28.190Z,17.77
2017-11-04T21:47:55.611Z,20.20
2017-11-04T21:50:23.007Z,19.43
2017-11-04T21:52:50.431Z,19.23
2017-11-04T21:55:17.818Z,20.47
2017-11-04T21:57:45.222Z,20.60
2017-11-04T22:00:12.615Z,19.93
2017-11-04T22:05:31.685Z,19.73
2017-11-04T22:07:59.132Z,18.23
2017-11-04T22:10:26.515Z,17.77
2017-11-04T22:12:53.950Z,19.90
2017-11-04T22:15:21.335Z,20.37
2017-11-04T22:17:48.735Z,20.20
2017-11-04T22:20:16.413Z,18.73
2017-11-04T22:22:43.813Z,19.00
2017-11-04T22:25:11.203Z,19.60
2017-11-04T22:27:38.677Z,18.97
2017-11-04T22:30:06.075Z,20.70
2017-11-04T22:32:33.471Z,17.77
2017-11-04T22:35:00.855Z,21.03
2017-11-04T22:37:28.254Z,21.23
2017-11-04T22:39:55.735Z,21.17
2017-11-04T22:42:23.131Z,20.90
2017-11-04T22:44:50.561Z,21.03
2017-11-04T22:47:18.013Z,18.80
2017-11-04T22:49:45.398Z,21.80
2017-11-04T22:52:12.951Z,19.33
2017-11-04T22:54:40.394Z,20.00
2017-11-04T22:57:07.839Z,20.30
2017-11-04T22:59:35.290Z,19.60
2017-11-04T23:02:02.710Z,18.40
2017-11-04T23:04:30.106Z,18.13
2017-11-04T23:06:57.495Z,19.43
2017-11-04T23:09:24.900Z,20.40
2017-11-04T23:11:52.370Z,21.93
2017-11-04T23:14:19.771Z,21.60
2017-11-04T23:16:47.171Z,20.83
2017-11-04T23:19:14.564Z,21.73
2017-11-04T23:21:41.990Z,21.70
2017-11-04T23:24:09.387Z,21.60
2017-11-04T23:26:36.775Z,21.60
2017-11-04T23:29:04.167Z,21.50
2017-11-04T23:31:31.618Z,21.13
2017-11-04T23:33:59.036Z,22.60
2017-11-04T23:36:26.422Z,21.20
2017-11-04T23:38:53.899Z,21.60
2017-11-04T23:41:21.646Z,21.83
2017-11-04T23:43:49.138Z,22.90
2017-11-04T23:46:16.575Z,22.80
2017-11-04T23:48:43.966Z,24.63
2017-11-04T23:51:11.384Z,23.67
2017-11-04T23:53:38.851Z,25.07
2017-11-04T23:56:06.307Z,23.20
2017-11-04T23:58:33.767Z,25.37
